createdAt,value
2022-11-25T00:04:51.465Z,32.97
2022-11-25T00:10:12.219Z,34.10
2022-11-25T00:15:33.689Z,29.30
2022-11-25T00:20:54.020Z,34.30
2022-11-25T00:26:16.707Z,30.60
2022-11-25T00:31:39.631Z,29.58
2022-11-25T00:36:59.860Z,41.05
2022-11-25T00:42:39.205Z,40.17
2022-11-25T00:47:59.530Z,42.10
2022-11-25T00:53:20.369Z,36.95
2022-11-25T00:58:45.009Z,28.20
2022-11-25T01:04:06.821Z,31.35
2022-11-25T01:09:28.481Z,32.72
2022-11-25T01:14:48.906Z,30.10
2022-11-25T01:20:10.108Z,35.92
2022-11-25T01:25:36.970Z,36.30
2022-11-25T01:31:05.145Z,37.25
2022-11-25T01:36:28.589Z,43.70
2022-11-25T01:41:49.855Z,33.88
2022-11-25T01:47:18.777Z,38.05
2022-11-25T01:52:46.056Z,35.30
2022-11-25T01:58:15.818Z,37.00
2022-11-25T02:03:43.078Z,26.45
2022-11-25T02:09:08.857Z,33.15
2022-11-25T02:14:29.385Z,39.90
2022-11-25T02:20:01.255Z,30.10
2022-11-25T02:25:38.524Z,33.17
2022-11-25T02:31:03.358Z,40.97
2022-11-25T02:36:24.651Z,38.63
2022-11-25T02:41:53.602Z,34.65
2022-11-25T02:47:15.777Z,31.75
2022-11-25T02:52:36.422Z,36.75
2022-11-25T02:57:57.269Z,32.25
2022-11-25T03:03:18.382Z,40.15
2022-11-25T03:08:40.602Z,36.58
2022-11-25T03:14:04.725Z,28.08
2022-11-25T03:19:25.578Z,34.15
2022-11-25T03:24:46.245Z,35.53
2022-11-25T03:30:12.524Z,27.75
2022-11-25T03:35:34.395Z,37.50
2022-11-25T03:40:55.176Z,37.90
2022-11-25T03:46:16.076Z,30.63
2022-11-25T03:51:37.499Z,37.55
2022-11-25T03:56:58.697Z,38.55
2022-11-25T04:02:20.752Z,35.00
2022-11-25T04:07:43.387Z,40.15
2022-11-25T04:13:04.748Z,36.33
2022-11-25T04:18:30.193Z,36.92
2022-11-25T04:23:52.499Z,36.40
2022-11-25T04:29:14.166Z,35.08
2022-11-25T04:34:37.273Z,26.17
2022-11-25T04:39:58.208Z,34.15
2022-11-25T04:45:23.859Z,44.28
2022-11-25T04:50:46.728Z,28.55
2022-11-25T04:56:07.909Z,33.92
2022-11-25T05:01:36.226Z,38.88
2022-11-25T05:07:18.479Z,32.80
2022-11-25T05:12:42.133Z,33.15
2022-11-25T05:18:07.026Z,36.63
2022-11-25T05:23:37.749Z,38.05
2022-11-25T05:28:58.576Z,32.63
2022-11-25T05:34:19.488Z,26.92
2022-11-25T05:39:41.445Z,28.08
2022-11-25T05:45:18.738Z,25.00
2022-11-25T05:50:39.287Z,22.58
2022-11-25T05:56:15.969Z,27.27
2022-11-25T06:01:58.977Z,26.88
2022-11-25T06:07:20.616Z,32.05
2022-11-25T06:12:43.220Z,27.00
2022-11-25T06:18:04.321Z,22.92
2022-11-25T06:23:27.758Z,30.10
2022-11-25T06:28:50.428Z,31.30
2022-11-25T06:34:11.305Z,24.20
2022-11-25T06:39:33.964Z,34.78
2022-11-25T06:44:55.006Z,28.92
2022-11-25T06:50:15.999Z,25.92
2022-11-25T06:55:36.432Z,20.45
2022-11-25T07:01:08.883Z,23.45
2022-11-25T07:06:31.276Z,25.02
2022-11-25T07:11:51.553Z,24.75
2022-11-25T07:17:12.520Z,23.48
2022-11-25T07:22:33.964Z,23.25
2022-11-25T07:27:54.569Z,26.30
2022-11-25T07:33:15.128Z,27.67
2022-11-25T07:38:35.929Z,32.55
2022-11-25T07:44:00.213Z,23.20
2022-11-25T07:49:25.373Z,20.92
2022-11-25T07:54:46.079Z,19.00
2022-11-25T08:00:07.569Z,21.73
2022-11-25T08:05:33.373Z,18.55
2022-11-25T08:10:54.051Z,17.90
2022-11-25T08:16:17.122Z,20.02
2022-11-25T08:21:37.553Z,16.95
2022-11-25T08:27:01.333Z,19.52
2022-11-25T08:32:21.609Z,26.00
2022-11-25T08:37:42.075Z,18.80
2022-11-25T08:43:03.997Z,22.48
2022-11-25T08:48:24.529Z,19.55
2022-11-25T08:53:46.597Z,18.70
2022-11-25T08:59:07.143Z,19.73
2022-11-25T09:04:27.666Z,19.45
2022-11-25T09:09:49.634Z,21.83
2022-11-25T09:15:10.850Z,12.38
2022-11-25T09:20:33.040Z,17.25
2022-11-25T09:25:58.809Z,21.02
2022-11-25T09:31:20.151Z,14.25
2022-11-25T09:36:40.407Z,14.25
2022-11-25T09:42:25.786Z,15.73
2022-11-25T09:48:11.751Z,13.27
2022-11-25T09:53:46.687Z,19.70
2022-11-25T09:59:15.030Z,24.05
2022-11-25T10:04:47.107Z,25.58
2022-11-25T10:10:23.853Z,20.02
2022-11-25T10:15:48.959Z,17.85
2022-11-25T10:21:11.420Z,22.83
2022-11-25T10:26:41.687Z,16.92
2022-11-25T10:32:25.483Z,20.25
2022-11-25T10:37:48.885Z,13.68
2022-11-25T10:43:13.978Z,18.90
2022-11-25T10:48:44.170Z,18.83
2022-11-25T10:54:09.946Z,14.35
2022-11-25T10:59:33.689Z,9.68
2022-11-25T11:05:07.738Z,16.33
2022-11-25T11:10:28.230Z,15.57
2022-11-25T11:15:49.825Z,16.90
2022-11-25T11:21:24.169Z,12.70
2022-11-25T11:26:44.788Z,16.77
2022-11-25T11:32:08.040Z,14.73
2022-11-25T11:37:31.232Z,15.77
2022-11-25T11:43:04.931Z,14.30
2022-11-25T11:48:39.730Z,18.35
2022-11-25T11:54:12.551Z,13.15
2022-11-25T11:59:53.347Z,23.08
2022-11-25T12:05:18.548Z,32.47
2022-11-25T12:10:44.951Z,18.10
2022-11-25T12:16:16.360Z,20.33
2022-11-25T12:21:50.046Z,18.10
2022-11-25T12:27:29.299Z,20.15
2022-11-25T12:33:17.556Z,19.00
2022-11-25T12:39:00.274Z,21.10
2022-11-25T12:44:37.785Z,26.15
2022-11-25T12:49:58.764Z,24.63
2022-11-25T12:55:19.486Z,10.88
2022-11-25T13:01:22.120Z,20.77
2022-11-25T13:07:12.512Z,15.77
2022-11-25T13:12:59.998Z,16.90
2022-11-25T13:18:26.040Z,19.38
2022-11-25T13:23:57.122Z,21.60
2022-11-25T13:29:17.620Z,13.15
2022-11-25T13:34:38.426Z,16.70
2022-11-25T13:40:20.971Z,13.52
2022-11-25T13:45:44.951Z,15.77
2022-11-25T13:51:22.253Z,17.83
2022-11-25T13:56:42.999Z,25.17
2022-11-25T14:02:30.520Z,18.90
2022-11-25T14:08:19.738Z,19.77
2022-11-25T14:14:06.994Z,30.15
2022-11-25T14:20:01.347Z,21.77
2022-11-25T14:25:30.277Z,26.23
2022-11-25T14:30:53.885Z,23.88
2022-11-25T14:36:21.018Z,17.40
2022-11-25T14:41:47.352Z,22.15
2022-11-25T14:47:07.795Z,19.02
2022-11-25T14:52:32.574Z,14.73
2022-11-25T14:57:53.391Z,20.52
2022-11-25T15:03:18.988Z,21.30
2022-11-25T15:08:45.091Z,20.45
2022-11-25T15:14:06.796Z,25.85
2022-11-25T15:19:34.074Z,29.55
2022-11-25T15:25:05.738Z,20.30
2022-11-25T15:30:29.250Z,26.70
2022-11-25T15:35:51.264Z,23.67
2022-11-25T15:41:33.362Z,21.80
2022-11-25T15:46:59.381Z,23.05
2022-11-25T15:52:22.617Z,22.00
2022-11-25T15:57:48.753Z,16.50
2022-11-25T16:03:21.090Z,33.47
2022-11-25T16:08:58.339Z,25.67
2022-11-25T16:14:27.423Z,25.85
2022-11-25T16:19:48.518Z,29.88
2022-11-25T16:25:10.512Z,22.50
2022-11-25T16:30:30.839Z,21.05
2022-11-25T16:35:52.092Z,15.32
2022-11-25T16:41:31.436Z,23.80
2022-11-25T16:46:53.287Z,23.73
2022-11-25T16:52:14.763Z,19.40
2022-11-25T16:57:36.913Z,28.73
2022-11-25T17:02:57.528Z,13.77
2022-11-25T17:08:18.154Z,17.80
2022-11-25T17:13:44.052Z,18.80
2022-11-25T17:19:04.358Z,18.60
2022-11-25T17:24:25.539Z,16.75
2022-11-25T17:29:46.651Z,21.55
2022-11-25T17:35:17.695Z,26.73
2022-11-25T17:40:38.556Z,21.08
2022-11-25T17:45:59.002Z,18.50
2022-11-25T17:51:19.292Z,15.70
2022-11-25T17:56:41.903Z,23.40
2022-11-25T18:02:02.455Z,22.30
2022-11-25T18:07:22.894Z,17.05
2022-11-25T18:12:46.096Z,10.93
2022-11-25T18:18:21.055Z,10.40
2022-11-25T18:23:42.574Z,17.95
2022-11-25T18:29:04.422Z,15.10
2022-11-25T18:34:26.086Z,15.23
2022-11-25T18:39:46.484Z,20.92
2022-11-25T18:45:17.236Z,27.60
2022-11-25T18:50:38.114Z,11.38
2022-11-25T18:55:58.517Z,13.48
2022-11-25T19:01:21.377Z,17.17
2022-11-25T19:06:42.391Z,28.40
2022-11-25T19:12:03.362Z,33.95
2022-11-25T19:17:25.899Z,17.58
2022-11-25T19:22:46.506Z,28.65
2022-11-25T19:28:07.260Z,21.25
2022-11-25T19:33:32.904Z,21.90
2022-11-25T19:38:54.248Z,12.70
2022-11-25T19:44:15.437Z,20.38
2022-11-25T19:49:36.024Z,19.95
2022-11-25T19:54:56.676Z,21.50
2022-11-25T20:00:18.869Z,14.10
2022-11-25T20:05:39.833Z,22.00
2022-11-25T20:11:00.496Z,14.82
2022-11-25T20:16:25.005Z,17.58
2022-11-25T20:21:46.561Z,16.63
2022-11-25T20:27:11.447Z,20.98
2022-11-25T20:32:33.986Z,15.00
2022-11-25T20:37:57.639Z,13.93
2022-11-25T20:43:28.772Z,21.85
2022-11-25T20:48:55.295Z,19.67
2022-11-25T20:54:17.009Z,22.92
2022-11-25T20:59:37.421Z,13.27
2022-11-25T21:04:57.912Z,14.50
2022-11-25T21:10:22.553Z,19.20
2022-11-25T21:21:06.364Z,24.25
2022-11-25T21:26:27.691Z,10.93
2022-11-25T21:31:48.351Z,24.35
2022-11-25T21:37:09.736Z,13.32
2022-11-25T21:42:31.350Z,19.95
2022-11-25T21:47:51.891Z,11.45
2022-11-25T21:53:12.647Z,13.48
2022-11-25T21:58:33.305Z,25.00
2022-11-25T22:03:54.193Z,15.52
2022-11-25T22:09:14.976Z,10.13
2022-11-25T22:14:37.881Z,18.92
2022-11-25T22:19:58.834Z,13.93
2022-11-25T22:25:20.122Z,30.88
2022-11-25T22:30:48.604Z,19.08
2022-11-25T22:36:26.493Z,14.98
2022-11-25T22:42:00.969Z,11.18
2022-11-25T22:47:28.874Z,10.18
2022-11-25T22:52:50.992Z,13.07
2022-11-25T22:58:13.166Z,18.83
2022-11-25T23:03:34.931Z,13.77
2022-11-25T23:08:55.325Z,20.15
2022-11-25T23:14:15.780Z,18.20
2022-11-25T23:19:36.552Z,17.88
2022-11-25T23:24:57.120Z,26.67
2022-11-25T23:30:20.200Z,14.40
2022-11-25T23:35:40.926Z,24.23
2022-11-25T23:41:01.411Z,17.17
2022-11-25T23:46:25.164Z,32.00
2022-11-25T23:51:45.919Z,14.52
2022-11-25T23:57:24.642Z,21.25
